Weather History for PABA - January, 2013

Change the Weather History Date:

Tuesday, January 15, 2013

  Actual Average Record
Temperature  
Mean Temperature -2 °F -  
Max Temperature 1 °F -2 °F 32 °F (2009)
Min Temperature -5 °F -12 °F -36 °F (2008)
Degree Days  
Heating Degree Days 67    
Moisture  
Dew Point -7 °F    
Average Humidity 85    
Maximum Humidity 92    
Minimum Humidity 78    
Precipitation  
Precipitation 0.00 in - - ()
Sea Level Pressure  
Sea Level Pressure 29.96 in    
Wind  
Wind Speed 26 mph (East)    
Max Wind Speed 39 mph    
Max Gust Speed 46 mph    
Visibility 2 miles    
Events Snow    
Averages and records for this station are not official NWS values.
T = Trace of Precipitation, MM = Missing Value Source: NWS Daily Summary

Daily Weather History Graph

Daily Weather History Graph

Search for Another Location

Airport or City:

Trip Planner

Search our weather history database for the weather conditions in past years. The results will help you decide how hot, cold, wet, or windy it might be!

Date:

Astronomy

Jan. 15, 2013 Rise Set
Actual Time 12:11 PM AKST 1:16 PM AKST
Civil Twilight 9:52 AM AKST 3:36 PM AKST
Nautical Twilight 8:19 AM AKST 5:08 PM AKST
Astronomical Twilight 7:04 AM AKST 6:24 PM AKST
Moon 10:07 AM AKST (1/15) 10:49 PM AKST (1/15)
Length of Visible Light 5h 44m
Length of Day
1h 04m
Waxing Crescent, 20% of the Moon is Illuminated
Jan 15
Waxing Crescent
Jan 18
First Quarter
Jan 26
Full
Feb 3
Last Quarter
Feb 9
New

Hourly Weather History & Observations

Time (AKST) Temp. Windchill Dew Point Humidity Pressure Visibility Wind Dir Wind Speed Gust Speed Precip Events Conditions
12:01 AM -2.2 °F -31.6 °F -5.8 °F 85% 29.66 in 0.8 mi East 39.1 mph 46.0 mph 0.00 in Snow Light Snow
12:09 AM -2.9 °F -31.6 °F -6.0 °F 87% 29.68 in 0.8 mi East 35.7 mph 43.7 mph 0.00 in Snow Light Snow
12:48 AM -2.2 °F -30.9 °F -5.8 °F 85% 29.69 in 1.0 mi East 36.8 mph 41.4 mph 0.00 in Snow Light Snow
1:01 AM -2.9 °F -31.3 °F -6.0 °F 87% 29.70 in 1.0 mi East 34.5 mph 46.0 mph 0.00 in Snow Light Snow
1:14 AM -2.2 °F -31.6 °F -5.8 °F 85% 29.70 in 0.8 mi East 39.1 mph 42.6 mph 0.00 in Snow Light Snow
1:31 AM -2.2 °F -30.3 °F -5.8 °F 85% 29.70 in 0.8 mi East 34.5 mph 44.9 mph 0.00 in Snow Light Snow
1:46 AM -2.2 °F -30.6 °F -5.8 °F 85% 29.72 in 1.0 mi East 35.7 mph 41.4 mph 0.00 in Snow Light Snow
2:01 AM -2.9 °F -30.2 °F -6.0 °F 87% 29.73 in 1.0 mi East 31.1 mph - 0.00 in Snow Light Snow
2:17 AM -2.2 °F -28.8 °F -5.8 °F 85% 29.74 in 1.2 mi East 29.9 mph - 0.00 in Snow Light Snow
3:01 AM -2.9 °F -29.8 °F -7.1 °F 82% 29.78 in 1.2 mi ENE 29.9 mph - 0.00 in Snow Light Snow
4:01 AM -2.9 °F -29.0 °F -7.1 °F 82% 29.81 in 1.5 mi East 27.6 mph - 0.00 in Snow Light Snow
5:01 AM -4.0 °F -30.0 °F -8.0 °F 83% 29.83 in 1.5 mi ENE 26.5 mph - 0.00 in Snow Light Snow
5:38 AM -4.0 °F -28.1 °F -7.6 °F 85% 29.88 in 2.5 mi ENE 21.9 mph - 0.00 in Snow Light Snow
5:52 AM -4.0 °F -27.6 °F -7.6 °F 85% 29.88 in 3.0 mi East 20.7 mph - 0.00 in Snow Light Snow
6:01 AM -4.0 °F -27.6 °F -7.6 °F 85% 29.88 in 2.5 mi ENE 20.7 mph - 0.00 in Snow Light Snow
6:14 AM -4.0 °F -26.4 °F -7.6 °F 85% 29.90 in 3.0 mi East 18.4 mph - 0.00 in Snow Light Snow
6:38 AM -5.8 °F -30.5 °F -7.6 °F 92% 29.90 in 2.5 mi East 21.9 mph - 0.00 in Snow Light Snow
6:51 AM -5.8 °F -30.5 °F -9.4 °F 84% 29.90 in 3.0 mi East 21.9 mph - 0.00 in Snow Light Snow
7:01 AM -5.1 °F -28.4 °F -9.0 °F 83% 29.92 in 3.0 mi East 19.6 mph - 0.00 in Snow Light Snow
8:01 AM -5.8 °F -28.8 °F -9.4 °F 84% 29.95 in 2.0 mi East 18.4 mph - 0.00 in Snow Light Snow
8:42 AM -5.8 °F -28.8 °F -9.4 °F 84% 29.97 in 2.5 mi East 18.4 mph - 0.00 in Snow Light Snow
8:53 AM -5.8 °F -29.4 °F -9.4 °F 84% 29.97 in 2.5 mi East 19.6 mph - 0.00 in Snow Light Snow
9:01 AM -5.8 °F -28.8 °F -9.4 °F 84% 29.97 in 1.8 mi East 18.4 mph - 0.00 in Snow Light Snow
9:10 AM -5.8 °F -27.5 °F -9.4 °F 84% 29.97 in 1.8 mi East 16.1 mph - 0.00 in Snow Light Snow
9:20 AM -5.8 °F -28.8 °F -7.6 °F 92% 29.98 in 1.2 mi East 18.4 mph - 0.00 in Snow Light Snow
9:35 AM -5.8 °F -28.8 °F -9.4 °F 84% 29.98 in 2.0 mi East 18.4 mph - 0.00 in Snow Light Snow
9:47 AM -5.8 °F -29.4 °F -9.4 °F 84% 29.98 in 1.8 mi East 19.6 mph - 0.00 in Snow Light Snow
9:58 AM -5.8 °F -29.9 °F -9.4 °F 84% 29.99 in 1.8 mi East 20.7 mph - 0.00 in Snow Light Snow
10:01 AM -5.1 °F -28.4 °F -9.0 °F 83% 29.99 in 1.8 mi East 19.6 mph - 0.00 in Snow Light Snow
10:23 AM -5.8 °F -29.9 °F -7.6 °F 92% 30.00 in 1.5 mi East 20.7 mph - 0.00 in Snow Light Snow
10:39 AM -5.8 °F -29.4 °F -7.6 °F 92% 30.00 in 1.0 mi East 19.6 mph - 0.00 in Snow Light Snow
10:50 AM -5.8 °F -29.9 °F -7.6 °F 92% 30.01 in 1.0 mi East 20.7 mph - 0.00 in Snow Light Snow
11:01 AM -5.1 °F -29.0 °F -8.0 °F 87% 30.01 in 1.0 mi East 20.7 mph - 0.00 in Snow Light Snow
11:12 AM -4.0 °F -28.1 °F -7.6 °F 85% 30.01 in 1.2 mi East 21.9 mph - 0.00 in Snow Light Snow
12:01 PM -4.0 °F -25.8 °F -7.6 °F 85% 30.03 in 2.0 mi East 17.3 mph - 0.00 in Snow Light Snow
12:14 PM -2.2 °F -23.5 °F -7.6 °F 78% 30.03 in 1.8 mi East 17.3 mph - 0.00 in Snow Light Snow
12:44 PM -2.2 °F -22.9 °F -5.8 °F 85% 30.04 in 2.0 mi East 16.1 mph - 0.00 in Snow Light Snow
1:01 PM -2.2 °F -23.5 °F -5.8 °F 85% 30.04 in 3.0 mi East 17.3 mph - 0.00 in Snow Light Snow
1:09 PM -2.2 °F -24.7 °F -5.8 °F 85% 30.04 in 2.5 mi East 19.6 mph - 0.00 in Snow Light Snow
1:32 PM -2.2 °F -23.5 °F -5.8 °F 85% 30.05 in 1.0 mi East 17.3 mph - 0.00 in Snow Light Snow
1:42 PM -2.0 °F -23.9 °F -5.1 °F 87% 30.06 in 1.0 mi East 18.4 mph - 0.00 in Snow Light Snow
1:50 PM -2.2 °F -23.5 °F -5.8 °F 85% 30.06 in 1.8 mi East 17.3 mph - 0.00 in Snow Light Snow
2:01 PM -2.0 °F -23.3 °F -5.1 °F 87% 30.06 in 1.2 mi East 17.3 mph - 0.00 in Snow Light Snow
2:19 PM -2.2 °F -23.5 °F -5.8 °F 85% 30.06 in 1.0 mi East 17.3 mph - 0.00 in Snow Light Snow
2:32 PM -2.2 °F -22.9 °F -5.8 °F 85% 30.07 in 1.2 mi East 16.1 mph - 0.00 in Snow Light Snow
2:54 PM -0.4 °F -21.2 °F -5.8 °F 78% 30.07 in 2.0 mi East 17.3 mph - 0.00 in Snow Light Snow
3:01 PM -0.9 °F -20.6 °F -5.1 °F 83% 30.08 in 2.0 mi East 15.0 mph - 0.00 in Snow Light Snow
3:13 PM -0.4 °F -20.5 °F -4.0 °F 85% 30.08 in 3.0 mi East 16.1 mph - 0.00 in Snow Light Snow
4:01 PM -0.9 °F -21.2 °F -4.0 °F 87% 30.09 in 4.0 mi East 16.1 mph - 0.00 in Snow Light Snow
5:01 PM -0.9 °F -21.2 °F -5.1 °F 83% 30.10 in 3.0 mi East 16.1 mph - 0.00 in   Mist
6:01 PM -0.9 °F -21.9 °F -4.0 °F 87% 30.11 in 6.0 mi East 17.3 mph - N/A   Mist
7:01 PM -0.9 °F -19.9 °F -4.0 °F 87% 30.13 in 4.0 mi East 13.8 mph - N/A   Mist
8:01 PM 1.0 °F -17.3 °F -2.9 °F 83% 30.14 in 8.0 mi East 13.8 mph - N/A   Unknown
9:01 PM 1.0 °F -18.0 °F -2.0 °F 87% 30.14 in 6.0 mi ESE 15.0 mph - 0.00 in Snow Light Snow
10:01 PM 1.0 °F -16.6 °F -2.0 °F 87% 30.16 in 7.0 mi ESE 12.7 mph - 0.00 in Snow Light Snow
11:01 PM 1.0 °F -17.3 °F -2.0 °F 87% 30.17 in 10.0 mi SE 13.8 mph - 0.00 in   Unknown